X  Schließen METAR Luftfahrt Wetterdaten     EDDM Munich Airport
Temperatur
15°C Temperatur
14°C Taupunkt
94% Feuchtigkeit



Wind
16 km/h
10 MPS
4 m/s
9 Ktn



290°
WNW
Aktuelle Wetterlage

Teilweise bewölkt Teilweise bewölkt
Luftdruck 1021.92 (hPa) - 30.18 (inchHg)
Sichtweite 6.2 (Meile) - 10 (Km)
Flughafen
Flughafen Code EDDM

Position : Munich Airport
Entfernung: 73 (Km)

Metar:
EDDM 071720Z AUTO 29009KT 9999 FEW025 15/14 Q1022 RESHRA NOSIG

Zeit: 07-07-2022 19:20 CEST